Main page
METAR-TAF:

METAR-TAF

Airports :

Worland Municipal Airport

Worland, Wyoming, United States

latitude: 43-57-57N, longitude: 107-57-03W, elevation: 4225 ft

Current weather observation

The report was made 13 minutes ago, at 19:53 UTC
Calm wind
Temperature 19°F
Humidity 73%
Pressure 30.11 in. Hg
Visibility: 10 miles
Clear sky

METAR: KWRL 031953Z AUTO 00000KT 10SM CLR M07/M11 A3011 RMK AO2 SLP271 T10671106

Time: 13:06 (20:06 UTC)

Forecast

The report was made 2 hours and 45 minutes ago, at 17:21 UTC
Forecast valid from 03 at 18 UTC to 04 at 18 UTC
Wind 6 mph from variable directions
Visibility: 6 miles
Broken clouds at a height of 25000 ft
From 03 at 2000 UTC
Wind 8 mph from the South/Southeast
Visibility: 6 miles
Broken clouds at a height of 12000 ft

TAF: KWRL 031721Z 0318/0418 VRB05KT P6SM BKN250 FM032000 16007KT P6SM BKN120

Weather observations and forecasts of more than 4000 airports (METAR and TAF reports).

The available stations are represented by yellow and red dots on the map.

Hover mouse over dot to see the name of the station.

Then click to see weather observations and forecasts.

To change the map : click on the green buttons with a black cross to zoom in, on the green button with a dash to zoom out, or on the green arrows for adjacent maps.


METAR-TAF: